createdAt,value
2022-11-29T00:01:13.623Z,30.52
2022-11-29T00:03:39.987Z,26.42
2022-11-29T00:06:09.049Z,26.02
2022-11-29T00:08:36.180Z,28.95
2022-11-29T00:11:04.257Z,27.50
2022-11-29T00:13:30.588Z,25.13
2022-11-29T00:16:02.036Z,27.30
2022-11-29T00:18:28.404Z,32.47
2022-11-29T00:20:54.819Z,42.58
2022-11-29T00:23:21.298Z,41.35
2022-11-29T00:25:47.686Z,36.17
2022-11-29T00:28:14.105Z,52.67
2022-11-29T00:30:40.572Z,45.13
2022-11-29T00:33:07.600Z,52.42
2022-11-29T00:35:34.034Z,45.95
2022-11-29T00:38:00.438Z,58.30
2022-11-29T00:40:26.875Z,57.58
2022-11-29T00:42:53.222Z,50.83
2022-11-29T00:45:19.636Z,59.70
2022-11-29T00:47:46.001Z,58.67
2022-11-29T00:50:12.431Z,56.13
2022-11-29T00:52:38.832Z,61.70
2022-11-29T00:55:05.720Z,53.05
2022-11-29T00:57:32.163Z,60.72
2022-11-29T00:59:58.557Z,62.50
2022-11-29T01:02:25.034Z,55.70
2022-11-29T01:04:51.464Z,56.95
2022-11-29T01:07:17.954Z,49.85
2022-11-29T01:09:44.396Z,57.60
2022-11-29T01:12:10.771Z,59.50
2022-11-29T01:14:37.210Z,49.15
2022-11-29T01:17:03.690Z,50.30
2022-11-29T01:19:30.139Z,63.53
2022-11-29T01:21:56.553Z,56.25
2022-11-29T01:24:22.972Z,50.22
2022-11-29T01:26:49.325Z,61.53
2022-11-29T01:29:15.818Z,62.00
2022-11-29T01:31:42.248Z,80.63
2022-11-29T01:34:08.731Z,105.25
2022-11-29T01:36:35.254Z,77.20
2022-11-29T01:39:04.189Z,113.15
2022-11-29T01:41:33.540Z,90.95
2022-11-29T01:44:01.477Z,85.20
2022-11-29T01:46:49.908Z,115.78
2022-11-29T01:49:24.343Z,77.90
2022-11-29T01:51:55.411Z,115.80
2022-11-29T01:54:22.669Z,103.38
2022-11-29T01:56:51.715Z,81.63
2022-11-29T01:59:21.864Z,126.55
2022-11-29T02:01:48.283Z,98.90
2022-11-29T02:04:15.231Z,105.53
2022-11-29T02:06:43.046Z,133.38
2022-11-29T02:09:20.778Z,129.65
2022-11-29T02:15:08.579Z,153.77
2022-11-29T02:18:02.664Z,131.75
2022-11-29T02:20:42.589Z,110.50
2022-11-29T02:23:50.902Z,176.40
2022-11-29T02:26:38.661Z,159.75
2022-11-29T02:29:24.149Z,117.57
2022-11-29T02:31:59.725Z,144.23
2022-11-29T02:34:45.240Z,147.75
2022-11-29T02:37:23.907Z,197.27
2022-11-29T02:40:38.644Z,169.27
2022-11-29T02:43:18.173Z,172.52
2022-11-29T02:46:09.242Z,111.65
2022-11-29T02:48:44.627Z,162.13
2022-11-29T02:51:25.801Z,131.40
2022-11-29T02:54:16.643Z,123.72
2022-11-29T02:56:52.080Z,112.57
2022-11-29T02:59:45.841Z,131.20
2022-11-29T03:02:28.536Z,121.55
2022-11-29T03:05:03.991Z,160.05
2022-11-29T03:08:02.863Z,147.52
2022-11-29T03:11:01.948Z,135.02
2022-11-29T03:13:45.716Z,119.97
2022-11-29T03:16:37.106Z,194.82
2022-11-29T03:19:13.045Z,164.15
2022-11-29T03:21:48.243Z,108.72
2022-11-29T03:24:36.727Z,117.00
2022-11-29T03:27:37.047Z,103.22
2022-11-29T03:30:08.161Z,99.50
2022-11-29T03:32:48.386Z,83.10
2022-11-29T03:35:25.403Z,90.72
2022-11-29T03:37:56.738Z,92.32
2022-11-29T03:41:12.971Z,83.82
2022-11-29T03:44:01.077Z,87.45
2022-11-29T03:46:47.161Z,103.32
2022-11-29T03:49:23.308Z,75.85
2022-11-29T03:52:08.083Z,80.90
2022-11-29T03:54:40.783Z,66.95
2022-11-29T03:57:07.617Z,67.32
2022-11-29T04:00:06.671Z,72.15
2022-11-29T04:03:20.614Z,68.03
2022-11-29T04:06:11.524Z,67.55
2022-11-29T04:08:49.873Z,58.33
2022-11-29T04:11:28.539Z,55.67
2022-11-29T04:14:07.268Z,57.35
2022-11-29T04:17:06.354Z,51.88
2022-11-29T04:19:32.716Z,51.50
2022-11-29T04:21:59.178Z,58.53
2022-11-29T04:24:50.077Z,63.15
2022-11-29T04:27:55.778Z,62.90
2022-11-29T04:30:27.430Z,57.50
2022-11-29T04:33:14.046Z,50.47
2022-11-29T04:36:18.378Z,56.67
2022-11-29T04:39:04.305Z,60.25
2022-11-29T04:42:02.748Z,67.70
2022-11-29T04:45:09.214Z,60.90
2022-11-29T04:47:44.114Z,70.25
2022-11-29T04:50:27.257Z,52.90
2022-11-29T04:53:11.150Z,68.20
2022-11-29T04:55:54.544Z,58.33
2022-11-29T04:58:44.064Z,66.50
2022-11-29T05:01:12.389Z,71.95
2022-11-29T05:03:46.903Z,79.63
2022-11-29T05:06:27.695Z,72.75
2022-11-29T05:09:15.428Z,85.80
2022-11-29T05:11:50.198Z,86.03
2022-11-29T05:14:54.821Z,77.30
2022-11-29T05:17:33.456Z,73.93
2022-11-29T05:20:03.568Z,82.15
2022-11-29T05:23:10.668Z,91.75
2022-11-29T05:25:57.319Z,63.63
2022-11-29T05:28:48.978Z,57.88
2022-11-29T05:31:26.407Z,82.43
2022-11-29T05:34:15.792Z,93.32
2022-11-29T05:36:47.736Z,72.70
2022-11-29T05:39:54.547Z,68.63
2022-11-29T05:42:24.179Z,65.60
2022-11-29T05:44:56.965Z,61.13
2022-11-29T05:47:39.750Z,54.10
2022-11-29T05:50:26.559Z,67.53
2022-11-29T05:53:27.388Z,77.10
2022-11-29T05:56:13.016Z,73.82
2022-11-29T05:59:00.176Z,75.00
2022-11-29T06:01:36.574Z,82.38
2022-11-29T06:04:21.409Z,64.97
2022-11-29T06:07:14.873Z,68.00
2022-11-29T06:09:52.288Z,77.65
2022-11-29T06:12:22.652Z,100.75
2022-11-29T06:15:11.717Z,92.90
2022-11-29T06:17:44.296Z,81.32
2022-11-29T06:20:35.273Z,82.82
2022-11-29T06:23:16.944Z,84.13
2022-11-29T06:25:49.844Z,79.43
2022-11-29T06:28:48.910Z,84.55
2022-11-29T06:31:23.846Z,79.03
2022-11-29T06:34:20.521Z,80.25
2022-11-29T06:37:05.605Z,61.47
2022-11-29T06:39:33.532Z,57.30
2022-11-29T06:42:00.010Z,77.68
2022-11-29T06:44:26.814Z,68.78
2022-11-29T06:47:08.198Z,64.63
2022-11-29T06:50:11.120Z,97.07
2022-11-29T06:52:58.377Z,80.90
2022-11-29T06:55:39.915Z,88.10
2022-11-29T06:58:36.229Z,102.15
2022-11-29T07:01:23.225Z,111.63
2022-11-29T07:04:46.379Z,77.35
2022-11-29T07:07:21.799Z,86.50
2022-11-29T07:09:51.451Z,108.90
2022-11-29T07:12:19.067Z,76.13
2022-11-29T07:14:45.969Z,69.20
2022-11-29T07:17:24.730Z,90.35
2022-11-29T07:19:56.827Z,70.88
2022-11-29T07:22:26.143Z,71.63
2022-11-29T07:25:11.408Z,96.10
2022-11-29T07:28:06.795Z,67.10
2022-11-29T07:30:36.099Z,96.78
2022-11-29T07:33:24.547Z,73.15
2022-11-29T07:36:28.791Z,66.03
2022-11-29T07:38:58.243Z,71.38
2022-11-29T07:41:42.293Z,92.90
2022-11-29T07:44:23.412Z,77.93
2022-11-29T07:46:49.877Z,66.72
2022-11-29T07:49:16.374Z,84.40
2022-11-29T07:51:43.343Z,102.60
2022-11-29T07:54:13.195Z,64.03
2022-11-29T07:56:39.611Z,68.85
2022-11-29T07:59:10.956Z,73.80
2022-11-29T08:01:37.523Z,64.97
2022-11-29T08:04:04.005Z,50.27
2022-11-29T08:06:30.366Z,55.50
2022-11-29T08:09:00.652Z,49.47
2022-11-29T08:11:27.382Z,59.17
2022-11-29T08:14:01.618Z,60.88
2022-11-29T08:16:28.186Z,75.60
2022-11-29T08:18:54.771Z,48.63
2022-11-29T08:21:21.339Z,56.28
2022-11-29T08:23:49.291Z,52.20
2022-11-29T08:26:17.292Z,55.33
2022-11-29T08:28:43.905Z,54.28
2022-11-29T08:31:12.934Z,56.17
2022-11-29T08:33:42.804Z,60.97
2022-11-29T08:36:14.735Z,51.15
2022-11-29T08:38:41.186Z,49.15
2022-11-29T08:41:12.969Z,53.95
2022-11-29T08:43:39.503Z,58.40
2022-11-29T08:46:06.186Z,55.90
2022-11-29T08:48:32.716Z,72.93
2022-11-29T08:50:59.202Z,58.40
2022-11-29T08:53:51.536Z,58.97
2022-11-29T08:59:06.260Z,53.90
2022-11-29T09:01:32.944Z,59.40
2022-11-29T09:03:59.553Z,61.53
2022-11-29T09:06:31.875Z,65.32
2022-11-29T09:08:59.439Z,55.88
2022-11-29T09:13:56.557Z,65.65
2022-11-29T09:16:26.332Z,55.10
2022-11-29T09:18:55.718Z,73.22
2022-11-29T09:21:24.625Z,72.07
2022-11-29T09:23:58.482Z,78.57
2022-11-29T09:26:33.854Z,80.30
2022-11-29T09:29:03.280Z,78.47
2022-11-29T09:31:31.233Z,87.78
2022-11-29T09:33:57.956Z,64.65
2022-11-29T09:36:28.380Z,77.37
2022-11-29T09:38:56.629Z,62.80
2022-11-29T09:42:12.432Z,66.57
2022-11-29T09:44:50.948Z,58.22
2022-11-29T09:47:56.397Z,51.88
2022-11-29T09:50:37.495Z,64.63
2022-11-29T09:53:21.801Z,59.95
2022-11-29T09:56:22.003Z,66.65
2022-11-29T09:58:54.314Z,66.13
2022-11-29T10:01:26.612Z,73.15
2022-11-29T10:03:57.100Z,62.83
2022-11-29T10:06:23.428Z,61.20
2022-11-29T10:08:59.374Z,55.75
2022-11-29T10:11:35.973Z,51.40
2022-11-29T10:14:20.271Z,64.32
2022-11-29T10:16:52.407Z,50.53
2022-11-29T10:19:32.604Z,61.30
2022-11-29T10:22:04.990Z,52.00
2022-11-29T10:24:33.300Z,55.58
2022-11-29T10:26:59.979Z,45.85
2022-11-29T10:29:26.706Z,52.85
2022-11-29T10:31:56.580Z,56.15
2022-11-29T10:34:25.473Z,53.25
2022-11-29T10:36:59.592Z,55.88
2022-11-29T10:39:37.098Z,52.92
2022-11-29T10:42:06.589Z,60.33
2022-11-29T10:44:33.701Z,53.10
2022-11-29T10:47:09.307Z,50.33
2022-11-29T10:49:37.905Z,44.07
2022-11-29T10:52:05.608Z,47.63
2022-11-29T10:54:39.493Z,44.65
2022-11-29T10:57:14.488Z,41.75
2022-11-29T10:59:41.108Z,43.38
2022-11-29T11:02:19.181Z,47.10
2022-11-29T11:07:28.562Z,38.13
2022-11-29T11:09:57.164Z,44.85
2022-11-29T11:12:30.046Z,43.25
2022-11-29T11:15:28.151Z,49.33
2022-11-29T11:18:00.557Z,49.15
2022-11-29T11:20:32.523Z,50.30
2022-11-29T11:23:24.640Z,44.67
2022-11-29T11:26:04.731Z,56.13
2022-11-29T11:28:52.168Z,50.58
2022-11-29T11:31:28.600Z,48.03
2022-11-29T11:33:55.328Z,50.20
2022-11-29T11:36:27.388Z,52.28
2022-11-29T11:39:11.590Z,45.35
2022-11-29T11:42:00.317Z,51.85
2022-11-29T11:47:27.186Z,36.05
2022-11-29T11:50:03.401Z,33.72
2022-11-29T11:52:42.880Z,36.63
2022-11-29T11:55:21.520Z,42.22
2022-11-29T11:58:14.291Z,43.22
2022-11-29T12:01:03.567Z,46.30
2022-11-29T12:03:45.964Z,36.75
2022-11-29T12:06:37.327Z,38.72
2022-11-29T12:09:26.132Z,40.78
2022-11-29T12:14:35.945Z,31.20
2022-11-29T12:17:09.513Z,39.95
2022-11-29T12:19:48.000Z,34.15
2022-11-29T12:22:22.284Z,38.03
2022-11-29T12:24:57.359Z,35.15
2022-11-29T12:27:23.830Z,28.77
2022-11-29T12:29:50.888Z,33.95
2022-11-29T12:32:36.207Z,36.25
2022-11-29T12:35:19.012Z,33.30
2022-11-29T12:38:23.661Z,34.78
2022-11-29T12:41:16.670Z,37.90
2022-11-29T12:43:48.976Z,35.60
2022-11-29T12:46:25.916Z,32.42
2022-11-29T12:49:04.248Z,33.67
2022-11-29T12:51:56.735Z,34.33
2022-11-29T12:54:48.901Z,29.55
2022-11-29T12:57:17.926Z,34.00
2022-11-29T13:00:03.628Z,35.53
2022-11-29T13:03:18.421Z,28.77
2022-11-29T13:06:03.960Z,30.92
2022-11-29T13:08:49.350Z,37.90
2022-11-29T13:11:37.622Z,34.28
2022-11-29T13:14:43.104Z,27.70
2022-11-29T13:17:27.884Z,33.38
2022-11-29T13:20:01.207Z,34.75
2022-11-29T13:22:52.369Z,36.05
2022-11-29T13:25:25.847Z,34.03
2022-11-29T13:28:29.184Z,45.70
2022-11-29T13:31:01.736Z,42.05
2022-11-29T13:33:45.853Z,49.75
2022-11-29T13:36:23.143Z,39.35
2022-11-29T13:39:30.135Z,34.97
2022-11-29T13:42:26.225Z,30.08
2022-11-29T13:44:58.029Z,37.33
2022-11-29T13:47:24.611Z,33.97
2022-11-29T13:49:57.255Z,32.03
2022-11-29T13:52:40.627Z,38.55
2022-11-29T13:55:12.949Z,32.00
2022-11-29T14:00:44.434Z,28.85
2022-11-29T14:03:23.008Z,41.08
2022-11-29T14:06:03.331Z,31.25
2022-11-29T14:09:17.682Z,26.73
2022-11-29T14:11:50.423Z,29.98
2022-11-29T14:16:43.087Z,33.10
2022-11-29T15:10:13.488Z,38.65
2022-11-29T15:12:40.311Z,43.40
2022-11-29T15:15:28.418Z,36.92
2022-11-29T15:18:10.297Z,40.72
2022-11-29T15:21:14.139Z,41.55
2022-11-29T15:23:42.564Z,38.65
2022-11-29T15:26:18.504Z,44.10
2022-11-29T15:28:45.502Z,35.10
2022-11-29T15:31:17.930Z,37.78
2022-11-29T15:33:47.364Z,44.55
2022-11-29T15:36:21.201Z,41.80
2022-11-29T15:38:57.343Z,44.08
2022-11-29T15:41:28.085Z,47.17
2022-11-29T15:43:59.740Z,39.47
2022-11-29T15:46:28.358Z,37.15
2022-11-29T15:48:55.700Z,33.60
2022-11-29T15:51:30.118Z,37.30
2022-11-29T15:54:12.765Z,35.45
2022-11-29T15:56:42.526Z,43.78
2022-11-29T15:59:17.601Z,43.20
2022-11-29T16:01:47.077Z,42.13
2022-11-29T16:04:19.186Z,38.78
2022-11-29T16:06:47.374Z,38.88
2022-11-29T16:09:17.995Z,38.25
2022-11-29T16:11:46.864Z,40.55
2022-11-29T16:14:22.143Z,45.13
2022-11-29T16:16:52.576Z,43.50
2022-11-29T16:19:28.240Z,37.22
2022-11-29T16:22:12.876Z,57.40
2022-11-29T16:24:48.252Z,67.70
2022-11-29T16:27:14.990Z,39.53
2022-11-29T16:29:46.086Z,38.87
2022-11-29T16:32:44.133Z,39.50
2022-11-29T16:35:19.008Z,43.85
2022-11-29T16:37:46.448Z,48.45
2022-11-29T16:43:19.458Z,38.30
2022-11-29T16:45:46.772Z,42.88
2022-11-29T16:48:22.407Z,46.42
2022-11-29T16:51:43.894Z,34.63
2022-11-29T16:54:21.111Z,39.90
2022-11-29T16:56:48.070Z,57.03
2022-11-29T16:59:20.780Z,53.90
2022-11-29T17:01:53.905Z,40.42
2022-11-29T17:04:23.393Z,42.30
2022-11-29T17:06:51.713Z,69.20
2022-11-29T17:09:27.685Z,66.07
2022-11-29T17:11:55.532Z,56.40
2022-11-29T17:14:22.296Z,48.00
2022-11-29T17:16:49.733Z,59.42
2022-11-29T17:19:16.435Z,52.53
2022-11-29T17:21:42.895Z,38.73
2022-11-29T17:24:14.461Z,38.38
2022-11-29T17:26:42.329Z,46.42
2022-11-29T17:29:16.229Z,39.88
2022-11-29T17:31:43.986Z,45.97
2022-11-29T17:34:10.996Z,38.67
2022-11-29T17:36:37.756Z,43.13
2022-11-29T17:39:05.295Z,51.25
2022-11-29T17:43:59.744Z,38.20
2022-11-29T17:46:28.534Z,47.50
2022-11-29T17:48:55.893Z,50.63
2022-11-29T17:54:10.733Z,60.30
2022-11-29T17:56:37.399Z,52.67
2022-11-29T17:59:04.824Z,52.77
2022-11-29T18:01:33.345Z,52.85
2022-11-29T18:04:01.391Z,48.50
2022-11-29T18:06:30.452Z,51.20
2022-11-29T18:08:59.179Z,55.20
2022-11-29T18:11:41.645Z,58.67
2022-11-29T18:14:13.222Z,54.88
2022-11-29T18:16:39.890Z,52.67
2022-11-29T18:19:14.859Z,56.63
2022-11-29T18:21:41.383Z,51.63
2022-11-29T18:24:08.338Z,60.80
2022-11-29T18:26:36.229Z,55.90
2022-11-29T18:29:02.731Z,57.75
2022-11-29T18:31:31.658Z,60.25
2022-11-29T18:34:02.170Z,67.18
2022-11-29T18:36:32.000Z,71.53
2022-11-29T18:39:04.326Z,63.45
2022-11-29T18:41:32.031Z,56.15
2022-11-29T18:44:10.034Z,57.80
2022-11-29T18:46:39.018Z,52.45
2022-11-29T18:49:10.631Z,61.92
2022-11-29T18:51:38.960Z,55.58
2022-11-29T18:54:06.491Z,67.82
2022-11-29T18:59:07.160Z,72.73
2022-11-29T19:01:35.501Z,70.07
2022-11-29T19:04:02.091Z,82.93
2022-11-29T19:06:38.591Z,78.25
2022-11-29T19:09:06.800Z,73.50
2022-11-29T19:11:34.296Z,81.63
2022-11-29T19:18:58.549Z,83.35
2022-11-29T19:21:26.892Z,80.97
2022-11-29T19:23:58.375Z,70.05
2022-11-29T19:26:27.443Z,84.75
2022-11-29T19:28:54.594Z,90.38
2022-11-29T19:31:27.067Z,99.10
2022-11-29T19:33:54.653Z,101.22
2022-11-29T19:38:53.414Z,92.72
2022-11-29T19:41:26.076Z,95.32
2022-11-29T19:43:52.673Z,80.70
2022-11-29T19:46:21.598Z,90.80
2022-11-29T19:48:48.805Z,70.55
2022-11-29T19:51:18.906Z,71.90
2022-11-29T19:53:46.406Z,75.13
2022-11-29T19:58:40.820Z,115.03
2022-11-29T20:01:09.999Z,80.35
2022-11-29T20:03:36.839Z,59.95
2022-11-29T20:06:03.739Z,64.55
2022-11-29T20:08:30.806Z,64.00
2022-11-29T20:11:05.439Z,61.25
2022-11-29T20:13:31.985Z,46.22
2022-11-29T20:16:05.810Z,42.47
2022-11-29T20:18:33.296Z,36.13
2022-11-29T20:23:30.860Z,34.40
2022-11-29T20:25:57.434Z,32.53
2022-11-29T20:28:23.960Z,27.43
2022-11-29T20:30:50.591Z,32.47
2022-11-29T20:33:24.655Z,32.15
2022-11-29T20:36:00.061Z,28.58
2022-11-29T20:38:44.127Z,30.65
2022-11-29T20:41:20.752Z,28.63
2022-11-29T20:43:59.603Z,30.33
2022-11-29T20:46:26.664Z,25.85
2022-11-29T20:48:53.828Z,27.77
2022-11-29T20:51:32.491Z,30.10
2022-11-29T20:53:58.961Z,27.67
2022-11-29T20:56:25.472Z,28.48
2022-11-29T20:58:51.935Z,25.98
2022-11-29T21:01:18.334Z,62.03
2022-11-29T21:03:44.841Z,38.05
2022-11-29T21:06:11.315Z,58.57
2022-11-29T21:08:37.800Z,34.67
2022-11-29T21:11:06.927Z,55.75
2022-11-29T21:13:34.036Z,38.45
2022-11-29T21:16:01.580Z,36.40
2022-11-29T21:18:29.620Z,32.45
2022-11-29T21:21:16.271Z,30.10
2022-11-29T21:23:55.837Z,29.55
2022-11-29T21:26:41.953Z,24.70
2022-11-29T21:29:17.392Z,29.80
2022-11-29T21:31:44.536Z,33.28
2022-11-29T21:34:11.314Z,25.63
2022-11-29T21:36:38.371Z,29.00
2022-11-29T21:39:07.232Z,27.20
2022-11-29T21:41:34.555Z,29.35
2022-11-29T21:44:08.711Z,25.88
2022-11-29T21:46:35.386Z,30.65
2022-11-29T21:49:01.882Z,29.87
2022-11-29T21:51:28.317Z,31.75
2022-11-29T21:53:54.660Z,31.05
2022-11-29T21:56:21.090Z,28.85
2022-11-29T21:58:47.533Z,31.67
2022-11-29T22:01:16.882Z,31.25
2022-11-29T22:03:44.037Z,28.92
2022-11-29T22:06:16.512Z,31.98
2022-11-29T22:08:42.948Z,28.60
2022-11-29T22:11:15.911Z,30.65
2022-11-29T22:14:02.610Z,26.92
2022-11-29T22:16:30.146Z,30.80
2022-11-29T22:18:56.631Z,33.25
2022-11-29T22:21:22.976Z,27.92
2022-11-29T22:23:49.447Z,29.00
2022-11-29T22:26:15.804Z,30.63
2022-11-29T22:28:42.161Z,29.67
2022-11-29T22:31:11.184Z,31.15
2022-11-29T22:33:38.167Z,30.13
2022-11-29T22:36:10.524Z,28.13
2022-11-29T22:38:37.624Z,26.52
2022-11-29T22:41:09.453Z,28.55
2022-11-29T22:43:37.253Z,33.05
2022-11-29T22:46:12.513Z,27.15
2022-11-29T22:48:39.912Z,30.27
2022-11-29T22:51:08.784Z,27.77
2022-11-29T22:53:36.894Z,28.58
2022-11-29T22:56:05.768Z,29.13
2022-11-29T22:58:32.939Z,30.35
2022-11-29T23:01:11.295Z,27.13
2022-11-29T23:03:59.453Z,30.42
2022-11-29T23:06:28.330Z,27.35
2022-11-29T23:08:58.059Z,29.10
2022-11-29T23:11:29.138Z,29.48
2022-11-29T23:13:55.767Z,26.65
2022-11-29T23:16:25.011Z,28.33
2022-11-29T23:18:51.919Z,25.52
2022-11-29T23:21:21.235Z,31.05
2022-11-29T23:23:52.966Z,31.02
2022-11-29T23:26:27.474Z,27.52
2022-11-29T23:28:54.647Z,28.80
2022-11-29T23:31:22.245Z,31.02
2022-11-29T23:33:49.116Z,30.77
2022-11-29T23:36:16.577Z,28.90
2022-11-29T23:41:11.643Z,30.10
2022-11-29T23:43:40.448Z,34.25
2022-11-29T23:46:13.911Z,31.00
2022-11-29T23:48:40.473Z,30.00
2022-11-29T23:51:07.087Z,35.30
2022-11-29T23:53:33.624Z,30.53
2022-11-29T23:56:01.877Z,31.77
2022-11-29T23:58:29.903Z,29.83
